Time;durP1;ratioP1;P1;durP2;ratioP2;P2;SDS_P1;SDS_P2;PMS_P1;PMS_P2;Temp;Humidity;BMP_temperature;BMP_pressure;BME280_temperature;BME280_humidity;BME280_pressure;Samples;Min_cycle;Max_cycle;Signal;HPM_P1;HPM_P2
2022/08/19 00:02:25;;;;;;;20.00;6.13;;;;;;;;;;5124368;27;20383;-76
2022/08/19 00:04:52;;;;;;;10.55;5.90;;;;;;;;;;5089494;28;20103;-75
2022/08/19 00:07:19;;;;;;;11.45;6.43;;;;;;;;;;5091841;28;20107;-75
2022/08/19 00:09:45;;;;;;;8.45;5.28;;;;;;;;;;5090337;28;20047;-74
2022/08/19 00:12:13;;;;;;;9.30;5.60;;;;;;;;;;5091231;28;20094;-74
2022/08/19 00:14:40;;;;;;;11.35;5.90;;;;;;;;;;5091906;28;20020;-75
2022/08/19 00:17:06;;;;;;;9.75;5.65;;;;;;;;;;5110019;27;20495;-75
2022/08/19 00:19:32;;;;;;;15.90;7.22;;;;;;;;;;5089925;28;20115;-74
2022/08/19 00:21:59;;;;;;;9.00;6.03;;;;;;;;;;5089612;28;20044;-74
2022/08/19 00:24:25;;;;;;;10.40;6.78;;;;;;;;;;5119635;27;20387;-75
2022/08/19 00:26:52;;;;;;;8.73;6.53;;;;;;;;;;5071393;28;20032;-74
2022/08/19 00:29:19;;;;;;;10.80;6.00;;;;;;;;;;5118254;27;20029;-75
2022/08/19 00:31:46;;;;;;;8.80;5.95;;;;;;;;;;5096302;28;20024;-74
2022/08/19 00:34:12;;;;;;;12.48;5.88;;;;;;;;;;5089769;28;20038;-73
2022/08/19 00:36:39;;;;;;;11.65;7.00;;;;;;;;;;5091679;28;20024;-75
2022/08/19 00:39:05;;;;;;;10.10;6.22;;;;;;;;;;5091519;28;20016;-75
2022/08/19 00:41:31;;;;;;;12.38;5.35;;;;;;;;;;5091962;28;20514;-75
2022/08/19 00:44:19;;;;;;;8.27;6.35;;;;;;;;;;5090977;28;20488;-75
2022/08/19 00:46:47;;;;;;;13.82;7.05;;;;;;;;;;5077458;28;20036;-75
2022/08/19 00:49:21;;;;;;;9.15;6.40;;;;;;;;;;5077185;28;20024;-75
2022/08/19 00:51:49;;;;;;;11.38;5.53;;;;;;;;;;5091485;28;20214;-75
2022/08/19 00:54:15;;;;;;;12.23;5.53;;;;;;;;;;5089730;28;20069;-76
2022/08/19 00:56:42;;;;;;;9.88;7.20;;;;;;;;;;5090928;28;20165;-74
2022/08/19 00:59:09;;;;;;;11.50;7.00;;;;;;;;;;5091248;28;20024;-75
2022/08/19 01:01:42;;;;;;;9.43;6.18;;;;;;;;;;5090893;28;20475;-75
2022/08/19 01:04:08;;;;;;;20.00;7.28;;;;;;;;;;5090550;28;20024;-76
2022/08/19 01:06:36;;;;;;;13.25;6.32;;;;;;;;;;5092358;28;20024;-75
2022/08/19 01:09:02;;;;;;;8.65;5.93;;;;;;;;;;5090742;28;20069;-74
2022/08/19 01:11:28;;;;;;;11.32;7.22;;;;;;;;;;5090804;28;20017;-76
2022/08/19 01:13:55;;;;;;;10.75;5.95;;;;;;;;;;5091513;28;20348;-75
2022/08/19 01:16:23;;;;;;;12.40;6.93;;;;;;;;;;5091096;28;20031;-75
2022/08/19 01:18:49;;;;;;;11.10;6.28;;;;;;;;;;5090866;28;20029;-76
2022/08/19 01:21:38;;;;;;;14.18;7.03;;;;;;;;;;5086769;28;20409;-75
2022/08/19 01:24:04;;;;;;;17.63;9.93;;;;;;;;;;5086622;28;20469;-75
2022/08/19 01:26:30;;;;;;;12.23;7.07;;;;;;;;;;5085832;28;20028;-76
2022/08/19 01:28:57;;;;;;;10.45;7.38;;;;;;;;;;5121668;27;20100;-76
2022/08/19 01:31:25;;;;;;;10.32;6.97;;;;;;;;;;5094495;28;20142;-75
2022/08/19 01:33:52;;;;;;;9.48;6.60;;;;;;;;;;5093459;28;20379;-76
2022/08/19 01:36:45;;;;;;;13.93;7.72;;;;;;;;;;5127695;27;20379;-74
2022/08/19 01:39:13;;;;;;;16.15;8.55;;;;;;;;;;5088972;28;20036;-73
2022/08/19 01:41:39;;;;;;;12.77;7.25;;;;;;;;;;5084021;28;20028;-73
2022/08/19 01:44:06;;;;;;;13.00;8.23;;;;;;;;;;5094468;28;20051;-73
2022/08/19 01:46:32;;;;;;;13.20;8.25;;;;;;;;;;5094365;28;20078;-73
2022/08/19 01:48:59;;;;;;;11.90;6.28;;;;;;;;;;5089541;28;20024;-76
2022/08/19 01:51:25;;;;;;;11.27;6.60;;;;;;;;;;5092008;28;20025;-72
2022/08/19 01:53:52;;;;;;;8.70;6.85;;;;;;;;;;5093795;28;20091;-73
2022/08/19 01:56:19;;;;;;;10.73;7.13;;;;;;;;;;5094100;28;20159;-73
2022/08/19 01:58:50;;;;;;;14.52;8.02;;;;;;;;;;5127257;27;20487;-74
2022/08/19 02:01:17;;;;;;;9.88;5.90;;;;;;;;;;5093995;28;20016;-74
2022/08/19 02:03:43;;;;;;;10.07;6.45;;;;;;;;;;5094212;28;20103;-73
2022/08/19 02:06:09;;;;;;;10.02;7.03;;;;;;;;;;5094027;28;20020;-74
2022/08/19 02:08:36;;;;;;;8.73;6.97;;;;;;;;;;5096152;28;20040;-73
2022/08/19 02:11:02;;;;;;;13.63;7.15;;;;;;;;;;5079698;28;20028;-74
2022/08/19 02:13:28;;;;;;;10.50;7.13;;;;;;;;;;5094423;28;20035;-74
2022/08/19 02:15:55;;;;;;;13.75;7.68;;;;;;;;;;5079445;28;20023;-73
2022/08/19 02:18:21;;;;;;;16.13;7.53;;;;;;;;;;5094171;28;20031;-73
2022/08/19 02:20:47;;;;;;;12.63;7.53;;;;;;;;;;5079262;28;20052;-76
2022/08/19 02:23:14;;;;;;;11.93;7.95;;;;;;;;;;5126893;27;20451;-75
2022/08/19 02:25:40;;;;;;;11.45;7.55;;;;;;;;;;5078400;28;20025;-75
2022/08/19 02:28:06;;;;;;;14.18;7.82;;;;;;;;;;5087030;28;20082;-75
2022/08/19 02:30:32;;;;;;;13.15;8.77;;;;;;;;;;5086648;28;20070;-76
2022/08/19 02:32:59;;;;;;;12.73;9.98;;;;;;;;;;5092555;28;20026;-75
2022/08/19 02:35:26;;;;;;;12.95;8.70;;;;;;;;;;5078389;28;20380;-75
2022/08/19 02:40:36;;;;;;;18.90;8.68;;;;;;;;;;5093390;28;20097;-76
2022/08/19 02:43:03;;;;;;;16.85;9.20;;;;;;;;;;5093499;28;20095;-75
2022/08/19 02:45:33;;;;;;;15.80;9.27;;;;;;;;;;5126449;27;20032;-76
2022/08/19 02:47:59;;;;;;;12.32;8.65;;;;;;;;;;5111531;27;20028;-75
2022/08/19 02:50:25;;;;;;;11.70;7.82;;;;;;;;;;5093229;28;20024;-76
2022/08/19 02:52:51;;;;;;;14.38;8.20;;;;;;;;;;5092944;28;20069;-75
2022/08/19 02:55:18;;;;;;;10.20;7.80;;;;;;;;;;5093252;28;20082;-76
2022/08/19 02:57:44;;;;;;;14.70;9.23;;;;;;;;;;5090964;28;20021;-75
2022/08/19 03:00:14;;;;;;;15.00;9.13;;;;;;;;;;5073276;28;20121;-75
2022/08/19 03:02:40;;;;;;;19.83;8.50;;;;;;;;;;5073007;28;20025;-75
2022/08/19 03:05:07;;;;;;;11.10;9.05;;;;;;;;;;5079868;28;20043;-75
2022/08/19 03:07:33;;;;;;;15.93;9.02;;;;;;;;;;5112742;27;20036;-75
2022/08/19 03:09:59;;;;;;;18.10;9.52;;;;;;;;;;5087101;28;20017;-76
2022/08/19 03:12:25;;;;;;;13.00;9.23;;;;;;;;;;5083978;28;20035;-75
2022/08/19 03:14:52;;;;;;;14.00;9.02;;;;;;;;;;5126215;27;20028;-76
2022/08/19 03:17:18;;;;;;;24.52;10.30;;;;;;;;;;5094371;28;20024;-74
2022/08/19 03:19:44;;;;;;;18.27;10.25;;;;;;;;;;5084653;28;20051;-75
2022/08/19 03:22:11;;;;;;;15.82;8.88;;;;;;;;;;5072809;28;20106;-76
2022/08/19 03:24:37;;;;;;;16.90;10.55;;;;;;;;;;5092577;28;20071;-75
2022/08/19 03:27:04;;;;;;;12.30;7.82;;;;;;;;;;5125204;27;20043;-75
2022/08/19 03:29:31;;;;;;;18.13;9.95;;;;;;;;;;5092326;28;20095;-76
2022/08/19 03:32:00;;;;;;;14.90;10.70;;;;;;;;;;5092864;28;20024;-75
2022/08/19 03:34:27;;;;;;;11.60;9.38;;;;;;;;;;5078409;28;20043;-75
2022/08/19 03:36:57;;;;;;;18.77;10.05;;;;;;;;;;5092358;28;20085;-75
2022/08/19 03:39:24;;;;;;;14.52;10.02;;;;;;;;;;5092252;28;20036;-76
2022/08/19 03:41:51;;;;;;;14.02;10.35;;;;;;;;;;5080873;28;20044;-77
2022/08/19 03:44:20;;;;;;;12.52;9.23;;;;;;;;;;5089549;28;20016;-77
2022/08/19 03:46:47;;;;;;;13.00;9.15;;;;;;;;;;5092394;28;20024;-77
2022/08/19 03:49:13;;;;;;;14.00;9.57;;;;;;;;;;5092136;28;20020;-77
2022/08/19 03:51:39;;;;;;;13.93;8.55;;;;;;;;;;5092195;28;20095;-77
2022/08/19 03:54:07;;;;;;;17.13;8.82;;;;;;;;;;5124912;27;20051;-77
2022/08/19 03:56:37;;;;;;;13.48;9.82;;;;;;;;;;5125280;27;20028;-78
2022/08/19 03:59:04;;;;;;;13.80;8.52;;;;;;;;;;5078623;28;20047;-78
2022/08/19 04:01:30;;;;;;;16.55;9.63;;;;;;;;;;5091162;28;20020;-76
2022/08/19 04:03:57;;;;;;;17.33;10.02;;;;;;;;;;5092006;28;20024;-78
2022/08/19 04:06:25;;;;;;;15.55;9.32;;;;;;;;;;5091983;28;20081;-78
2022/08/19 04:08:53;;;;;;;18.05;11.25;;;;;;;;;;5081747;28;20946;-78
2022/08/19 04:11:22;;;;;;;13.40;8.57;;;;;;;;;;5085804;28;20013;-77
2022/08/19 04:13:48;;;;;;;14.85;8.40;;;;;;;;;;5119990;27;20030;-79
2022/08/19 04:16:14;;;;;;;12.38;6.65;;;;;;;;;;5090764;28;20116;-77
2022/08/19 04:18:42;;;;;;;16.02;8.40;;;;;;;;;;5091617;28;20024;-78
2022/08/19 04:21:08;;;;;;;12.20;9.20;;;;;;;;;;5085659;28;20047;-78
2022/08/19 04:23:38;;;;;;;21.00;16.25;;;;;;;;;;5071312;28;20017;-77
2022/08/19 04:26:04;;;;;;;21.75;8.88;;;;;;;;;;5123071;27;20023;-77
2022/08/19 04:28:30;;;;;;;14.43;9.15;;;;;;;;;;5090196;28;20037;-77
2022/08/19 04:30:56;;;;;;;11.07;9.55;;;;;;;;;;5091478;28;20043;-76
2022/08/19 04:33:24;;;;;;;15.77;9.90;;;;;;;;;;5091739;28;20099;-76
2022/08/19 04:35:51;;;;;;;16.40;9.93;;;;;;;;;;5124254;27;20013;-76
2022/08/19 04:38:18;;;;;;;17.92;9.73;;;;;;;;;;5092913;28;20065;-77
2022/08/19 04:43:30;;;;;;;19.33;9.98;;;;;;;;;;5091556;28;20063;-78
2022/08/19 04:45:57;;;;;;;15.25;9.38;;;;;;;;;;5091208;28;20072;-78
2022/08/19 04:48:26;;;;;;;13.25;9.63;;;;;;;;;;5087866;28;20020;-78
2022/08/19 04:50:59;;;;;;;17.70;9.20;;;;;;;;;;5080608;28;20024;-77
2022/08/19 04:53:28;;;;;;;24.08;9.50;;;;;;;;;;5091017;28;20023;-78
2022/08/19 04:55:54;;;;;;;18.75;10.13;;;;;;;;;;5093223;28;20016;-77
2022/08/19 04:58:20;;;;;;;19.40;10.85;;;;;;;;;;5095747;28;20111;-79
2022/08/19 05:00:46;;;;;;;16.60;10.25;;;;;;;;;;5095669;28;20058;-78
2022/08/19 05:03:14;;;;;;;18.73;10.45;;;;;;;;;;5095415;28;20044;-77
2022/08/19 05:05:41;;;;;;;16.33;10.32;;;;;;;;;;5133109;27;20072;-76
2022/08/19 05:08:07;;;;;;;13.27;10.38;;;;;;;;;;5103831;28;20028;-77
2022/08/19 05:10:37;;;;;;;16.50;10.57;;;;;;;;;;5128709;27;20780;-78
2022/08/19 05:13:03;;;;;;;17.13;9.55;;;;;;;;;;5095423;28;20883;-77
2022/08/19 05:15:30;;;;;;;20.80;9.73;;;;;;;;;;5095266;28;20403;-77
2022/08/19 05:23:25;;;;;;;16.58;9.75;;;;;;;;;;5085926;28;20074;-79
2022/08/19 05:25:52;;;;;;;13.77;9.23;;;;;;;;;;5092640;28;20024;-78
2022/08/19 05:28:19;;;;;;;13.70;10.70;;;;;;;;;;5116552;27;20028;-78
2022/08/19 05:30:46;;;;;;;19.90;10.65;;;;;;;;;;5083623;28;20066;-76
2022/08/19 05:33:12;;;;;;;17.95;8.98;;;;;;;;;;5094663;28;20020;-79
2022/08/19 05:35:40;;;;;;;20.05;9.77;;;;;;;;;;5093076;28;20095;-78
2022/08/19 05:38:10;;;;;;;17.45;9.93;;;;;;;;;;5094394;28;20016;-78
2022/08/19 05:40:37;;;;;;;20.40;9.70;;;;;;;;;;5093315;28;21139;-79
2022/08/19 05:43:03;;;;;;;15.07;9.02;;;;;;;;;;5114573;27;20012;-78
2022/08/19 05:45:30;;;;;;;20.77;9.70;;;;;;;;;;5113757;27;20067;-76
2022/08/19 05:47:56;;;;;;;13.18;9.27;;;;;;;;;;5079496;28;20115;-78
2022/08/19 05:50:22;;;;;;;19.23;9.45;;;;;;;;;;5083110;28;20071;-76
2022/08/19 05:52:48;;;;;;;16.67;9.15;;;;;;;;;;5092045;28;20080;-77
2022/08/19 05:55:14;;;;;;;14.77;10.63;;;;;;;;;;5094305;28;20062;-76
2022/08/19 05:57:40;;;;;;;14.35;9.52;;;;;;;;;;5074463;28;20108;-78
2022/08/19 06:00:10;;;;;;;17.35;9.82;;;;;;;;;;5085517;28;20994;-76
2022/08/19 06:02:36;;;;;;;12.43;9.27;;;;;;;;;;5112885;27;20490;-79
2022/08/19 06:05:05;;;;;;;25.35;11.32;;;;;;;;;;5084247;28;20017;-78
2022/08/19 06:07:31;;;;;;;29.35;10.77;;;;;;;;;;5123290;27;20040;-78
2022/08/19 06:09:58;;;;;;;23.23;11.20;;;;;;;;;;5096001;28;20072;-76
2022/08/19 06:12:32;;;;;;;25.40;10.85;;;;;;;;;;5095757;28;20016;-78
2022/08/19 06:14:59;;;;;;;27.98;10.73;;;;;;;;;;5127115;27;20110;-76
2022/08/19 06:17:25;;;;;;;19.88;12.55;;;;;;;;;;5093654;28;20039;-77
2022/08/19 06:19:52;;;;;;;20.40;9.57;;;;;;;;;;5094095;28;20020;-75
2022/08/19 06:22:18;;;;;;;17.25;10.05;;;;;;;;;;5077985;28;20041;-76
2022/08/19 06:24:44;;;;;;;16.60;10.82;;;;;;;;;;5080883;28;20081;-76
2022/08/19 06:27:11;;;;;;;18.75;10.52;;;;;;;;;;5092227;28;20071;-76
2022/08/19 06:29:38;;;;;;;21.65;11.05;;;;;;;;;;5093664;28;20017;-76
2022/08/19 06:32:04;;;;;;;19.23;11.50;;;;;;;;;;5079163;28;20013;-76
2022/08/19 06:34:32;;;;;;;19.83;11.02;;;;;;;;;;5126322;27;20022;-75
2022/08/19 06:37:02;;;;;;;17.25;11.20;;;;;;;;;;5093986;28;20021;-75
2022/08/19 06:39:30;;;;;;;19.08;11.80;;;;;;;;;;5126479;27;20468;-76
2022/08/19 06:41:57;;;;;;;22.90;11.23;;;;;;;;;;5126286;27;20020;-76
2022/08/19 06:44:25;;;;;;;17.45;11.80;;;;;;;;;;5126169;27;20050;-76
2022/08/19 06:46:52;;;;;;;26.10;13.13;;;;;;;;;;5093707;28;20035;-75
2022/08/19 06:49:18;;;;;;;24.27;12.20;;;;;;;;;;5090985;28;20048;-77
2022/08/19 06:51:47;;;;;;;24.95;13.43;;;;;;;;;;5115308;27;20035;-77
2022/08/19 06:54:13;;;;;;;13.18;9.68;;;;;;;;;;5125868;27;20080;-76
2022/08/19 06:56:40;;;;;;;16.27;9.43;;;;;;;;;;5093189;28;20474;-76
2022/08/19 06:59:11;;;;;;;19.77;9.82;;;;;;;;;;5091980;28;20126;-76
2022/08/19 07:01:39;;;;;;;13.48;8.43;;;;;;;;;;5072765;28;20108;-79
2022/08/19 07:04:06;;;;;;;13.45;8.00;;;;;;;;;;5085684;28;20031;-77
2022/08/19 07:06:32;;;;;;;16.85;9.80;;;;;;;;;;5092951;28;20084;-78
2022/08/19 07:08:58;;;;;;;10.60;7.93;;;;;;;;;;5092674;28;20038;-79
2022/08/19 07:11:24;;;;;;;13.20;8.60;;;;;;;;;;5098819;28;20016;-76
2022/08/19 07:13:51;;;;;;;15.05;7.28;;;;;;;;;;5078753;28;20012;-76
2022/08/19 07:16:21;;;;;;;15.25;8.43;;;;;;;;;;5092514;28;20012;-76
2022/08/19 07:18:48;;;;;;;20.88;9.18;;;;;;;;;;5092145;28;20035;-76
2022/08/19 07:21:17;;;;;;;16.63;8.35;;;;;;;;;;5099735;28;20051;-76
2022/08/19 07:23:43;;;;;;;14.52;8.18;;;;;;;;;;5098628;28;20028;-76
2022/08/19 07:26:15;;;;;;;13.40;7.95;;;;;;;;;;5139941;27;20035;-78
2022/08/19 07:28:42;;;;;;;15.43;7.95;;;;;;;;;;5091247;28;20032;-77
2022/08/19 07:31:10;;;;;;;13.65;8.48;;;;;;;;;;5085271;28;20535;-77
2022/08/19 07:33:36;;;;;;;14.85;8.82;;;;;;;;;;5086220;28;20024;-78
2022/08/19 07:36:06;;;;;;;25.55;9.05;;;;;;;;;;5092784;28;20048;-76
2022/08/19 07:38:32;;;;;;;14.05;8.68;;;;;;;;;;5092760;28;20024;-77
2022/08/19 07:40:58;;;;;;;15.85;8.65;;;;;;;;;;5125135;27;20086;-78
2022/08/19 07:43:25;;;;;;;15.70;7.93;;;;;;;;;;5091960;28;20023;-77
2022/08/19 07:45:53;;;;;;;15.93;7.85;;;;;;;;;;5106928;28;20065;-78
2022/08/19 07:48:19;;;;;;;13.07;9.20;;;;;;;;;;5092143;28;20027;-77
2022/08/19 07:50:45;;;;;;;15.13;9.32;;;;;;;;;;5124933;27;20028;-77
2022/08/19 07:53:12;;;;;;;16.10;9.38;;;;;;;;;;5091999;28;20020;-78
2022/08/19 07:55:38;;;;;;;18.02;9.48;;;;;;;;;;5092295;28;20490;-77
2022/08/19 07:58:04;;;;;;;14.48;9.95;;;;;;;;;;5072720;28;20017;-76
2022/08/19 08:00:30;;;;;;;21.90;11.15;;;;;;;;;;5082999;28;20095;-78
2022/08/19 08:02:56;;;;;;;19.75;10.25;;;;;;;;;;5091732;28;20391;-77
2022/08/19 08:10:56;;;;;;;16.25;10.23;;;;;;;;;;5081040;28;20403;-77
2022/08/19 08:13:22;;;;;;;16.85;11.02;;;;;;;;;;5096166;28;20035;-77
2022/08/19 08:15:49;;;;;;;13.95;9.30;;;;;;;;;;5091882;28;20097;-78
2022/08/19 08:18:20;;;;;;;13.15;10.10;;;;;;;;;;5091926;28;20500;-77
2022/08/19 08:20:46;;;;;;;17.05;9.40;;;;;;;;;;5077304;28;20049;-77
2022/08/19 08:23:25;;;;;;;14.60;8.27;;;;;;;;;;5082689;28;20015;-78
2022/08/19 08:25:55;;;;;;;16.70;9.90;;;;;;;;;;5089680;28;20027;-78
2022/08/19 08:28:21;;;;;;;16.35;8.77;;;;;;;;;;5091424;28;20081;-80
2022/08/19 08:30:48;;;;;;;12.75;8.35;;;;;;;;;;5090606;28;20031;-78
2022/08/19 08:33:15;;;;;;;10.05;7.75;;;;;;;;;;5124439;27;20047;-77
2022/08/19 08:35:42;;;;;;;15.80;7.22;;;;;;;;;;5124282;27;20024;-79
2022/08/19 08:38:08;;;;;;;17.30;7.97;;;;;;;;;;5091057;28;20383;-76
2022/08/19 08:40:37;;;;;;;16.05;7.95;;;;;;;;;;5091245;28;20402;-79
2022/08/19 08:43:08;;;;;;;11.88;8.02;;;;;;;;;;5091447;28;20020;-77
2022/08/19 08:45:36;;;;;;;20.85;7.18;;;;;;;;;;5090912;28;20123;-79
2022/08/19 08:48:04;;;;;;;14.23;7.18;;;;;;;;;;5124164;28;20031;-77
2022/08/19 08:50:36;;;;;;;15.95;6.55;;;;;;;;;;5091405;28;20024;-77
2022/08/19 08:53:05;;;;;;;18.75;7.82;;;;;;;;;;5123770;27;20031;-77
2022/08/19 08:55:31;;;;;;;16.90;7.25;;;;;;;;;;5111763;28;20017;-76
2022/08/19 08:58:13;;;;;;;16.02;7.40;;;;;;;;;;5083526;28;20025;-77
2022/08/19 09:00:41;;;;;;;16.00;7.07;;;;;;;;;;5103519;28;20019;-77
2022/08/19 09:03:12;;;;;;;17.90;7.35;;;;;;;;;;5091228;28;20245;-77
2022/08/19 09:05:46;;;;;;;10.85;6.85;;;;;;;;;;5124126;27;20024;-76
2022/08/19 09:08:21;;;;;;;17.30;7.65;;;;;;;;;;5086325;28;20025;-78
2022/08/19 09:10:53;;;;;;;13.90;6.95;;;;;;;;;;5082635;28;20101;-77
2022/08/19 09:13:25;;;;;;;13.00;7.60;;;;;;;;;;5087833;28;20024;-78
2022/08/19 09:16:11;;;;;;;14.50;6.65;;;;;;;;;;5123831;28;20739;-78
2022/08/19 09:18:42;;;;;;;17.23;7.20;;;;;;;;;;5080390;28;20072;-76
2022/08/19 09:21:08;;;;;;;12.48;7.00;;;;;;;;;;5090888;28;20059;-77
2022/08/19 09:23:35;;;;;;;9.85;6.63;;;;;;;;;;5090847;28;20510;-77
2022/08/19 09:26:02;;;;;;;14.05;6.70;;;;;;;;;;5090931;28;20020;-78
2022/08/19 09:28:29;;;;;;;13.68;6.25;;;;;;;;;;5090879;28;20127;-77
2022/08/19 09:30:55;;;;;;;17.42;6.50;;;;;;;;;;5091297;28;20428;-76
2022/08/19 09:33:22;;;;;;;14.88;6.78;;;;;;;;;;5091153;28;20074;-77
2022/08/19 09:35:48;;;;;;;17.20;7.65;;;;;;;;;;5087265;28;20016;-77
2022/08/19 09:38:14;;;;;;;16.95;8.32;;;;;;;;;;5090199;28;20087;-77
2022/08/19 09:40:40;;;;;;;17.60;7.18;;;;;;;;;;5094900;28;20028;-77
2022/08/19 09:43:07;;;;;;;12.77;6.85;;;;;;;;;;5127166;27;20029;-77
2022/08/19 09:45:33;;;;;;;16.45;7.28;;;;;;;;;;5094426;28;20016;-78
2022/08/19 09:47:59;;;;;;;13.27;6.38;;;;;;;;;;5080285;28;20039;-78
2022/08/19 09:50:25;;;;;;;11.65;6.80;;;;;;;;;;5082531;28;20379;-77
2022/08/19 09:52:53;;;;;;;16.60;6.43;;;;;;;;;;5091457;28;20020;-77
2022/08/19 09:55:19;;;;;;;23.35;8.43;;;;;;;;;;5094318;28;20022;-80
2022/08/19 09:57:45;;;;;;;14.52;7.10;;;;;;;;;;5094019;28;20016;-78
2022/08/19 10:00:11;;;;;;;12.98;7.10;;;;;;;;;;5094462;28;20016;-78
2022/08/19 10:02:37;;;;;;;10.80;6.38;;;;;;;;;;5094041;28;20133;-78
2022/08/19 10:07:48;;;;;;;12.20;6.97;;;;;;;;;;5090866;28;20047;-78
2022/08/19 10:10:15;;;;;;;12.98;7.00;;;;;;;;;;5126670;27;20012;-78
2022/08/19 10:12:42;;;;;;;20.73;8.38;;;;;;;;;;5094267;28;20019;-77
2022/08/19 10:15:08;;;;;;;12.73;7.00;;;;;;;;;;5092180;28;20098;-76
2022/08/19 10:17:35;;;;;;;14.10;7.30;;;;;;;;;;5122558;27;20021;-77
2022/08/19 10:20:02;;;;;;;13.52;7.85;;;;;;;;;;5084739;28;20489;-77
2022/08/19 10:22:29;;;;;;;10.57;7.28;;;;;;;;;;5078486;28;20513;-79
2022/08/19 10:24:55;;;;;;;11.95;7.40;;;;;;;;;;5085920;28;20476;-76
2022/08/19 10:27:21;;;;;;;15.38;7.88;;;;;;;;;;5088171;28;20040;-77
2022/08/19 10:29:49;;;;;;;15.80;7.03;;;;;;;;;;5121420;27;20016;-75
2022/08/19 10:32:16;;;;;;;19.02;8.45;;;;;;;;;;5090277;28;20447;-77
2022/08/19 10:34:42;;;;;;;13.30;7.28;;;;;;;;;;5090448;28;20479;-76
2022/08/19 10:37:09;;;;;;;11.55;6.57;;;;;;;;;;5093391;28;20061;-76
2022/08/19 10:39:36;;;;;;;16.58;7.32;;;;;;;;;;5093612;28;20119;-76
2022/08/19 10:42:06;;;;;;;13.48;7.13;;;;;;;;;;5123710;27;20028;-75
2022/08/19 10:44:35;;;;;;;13.13;6.88;;;;;;;;;;5081000;28;20547;-77
2022/08/19 10:47:01;;;;;;;15.07;6.72;;;;;;;;;;5084426;28;20016;-78
2022/08/19 10:49:28;;;;;;;8.30;5.43;;;;;;;;;;5126116;27;20379;-79
2022/08/19 10:57:37;;;;;;;12.57;7.22;;;;;;;;;;5089925;28;20020;-80
2022/08/19 11:00:04;;;;;;;9.90;5.97;;;;;;;;;;5091520;28;20107;-77
2022/08/19 11:02:32;;;;;;;9.95;5.95;;;;;;;;;;5092328;28;20056;-79
2022/08/19 11:04:58;;;;;;;10.07;6.38;;;;;;;;;;5087299;28;20110;-79
2022/08/19 11:07:26;;;;;;;13.35;10.60;;;;;;;;;;5073286;28;20068;-77
2022/08/19 11:09:52;;;;;;;17.77;6.85;;;;;;;;;;5122597;27;20425;-77
2022/08/19 11:12:19;;;;;;;8.30;6.05;;;;;;;;;;5092636;28;20016;-77
2022/08/19 11:14:45;;;;;;;10.95;5.68;;;;;;;;;;5096678;28;20438;-78
2022/08/19 11:17:13;;;;;;;8.63;6.10;;;;;;;;;;5080385;28;20024;-75
2022/08/19 11:19:39;;;;;;;13.65;6.47;;;;;;;;;;5087779;28;20016;-78
2022/08/19 11:22:09;;;;;;;15.73;6.72;;;;;;;;;;5079936;28;20048;-78
2022/08/19 11:24:37;;;;;;;11.80;6.20;;;;;;;;;;5086226;28;20020;-77
2022/08/19 11:27:09;;;;;;;13.40;6.30;;;;;;;;;;5124927;27;20028;-77
2022/08/19 11:29:36;;;;;;;12.70;5.72;;;;;;;;;;5091958;28;20530;-78
2022/08/19 11:32:06;;;;;;;15.20;5.55;;;;;;;;;;5125208;27;20060;-78
2022/08/19 11:34:35;;;;;;;15.48;6.13;;;;;;;;;;5089139;28;20391;-78
2022/08/19 11:37:03;;;;;;;12.13;6.13;;;;;;;;;;5088335;28;20047;-78
2022/08/19 11:39:31;;;;;;;15.00;5.63;;;;;;;;;;5092227;28;20101;-79
2022/08/19 11:42:02;;;;;;;11.93;6.00;;;;;;;;;;5087783;28;20044;-76
2022/08/19 11:44:30;;;;;;;11.53;6.33;;;;;;;;;;5092548;28;20144;-79
2022/08/19 11:46:56;;;;;;;11.48;5.72;;;;;;;;;;5092096;28;20016;-78
2022/08/19 11:49:22;;;;;;;15.05;6.18;;;;;;;;;;5091115;28;20032;-77
2022/08/19 11:51:50;;;;;;;11.02;5.00;;;;;;;;;;5091717;28;20102;-78
2022/08/19 11:54:17;;;;;;;16.73;6.45;;;;;;;;;;5124360;27;20028;-78
2022/08/19 11:56:43;;;;;;;20.08;6.78;;;;;;;;;;5091782;28;20487;-78
2022/08/19 11:59:10;;;;;;;15.90;5.82;;;;;;;;;;5122255;27;20039;-78
2022/08/19 12:01:36;;;;;;;12.20;5.90;;;;;;;;;;5081527;28;20021;-78
2022/08/19 12:04:04;;;;;;;16.15;6.25;;;;;;;;;;5089535;28;20020;-78
2022/08/19 12:06:32;;;;;;;15.57;5.72;;;;;;;;;;5118634;27;20042;-78
2022/08/19 12:08:59;;;;;;;11.73;5.38;;;;;;;;;;5089035;28;20054;-77
2022/08/19 12:11:26;;;;;;;9.35;4.70;;;;;;;;;;5091142;28;20079;-77
2022/08/19 12:13:53;;;;;;;10.93;5.55;;;;;;;;;;5095045;28;20028;-76
2022/08/19 12:16:20;;;;;;;13.30;6.05;;;;;;;;;;5091838;28;20020;-77
2022/08/19 12:18:47;;;;;;;11.70;4.57;;;;;;;;;;5091466;28;20026;-77
2022/08/19 12:21:13;;;;;;;15.10;6.53;;;;;;;;;;5090525;28;20040;-77
2022/08/19 12:23:40;;;;;;;9.23;4.88;;;;;;;;;;5122140;27;20157;-79
2022/08/19 12:26:07;;;;;;;15.50;4.65;;;;;;;;;;5123198;27;20378;-78
2022/08/19 12:28:33;;;;;;;12.80;5.85;;;;;;;;;;5090447;28;20176;-78
2022/08/19 12:30:59;;;;;;;19.10;5.22;;;;;;;;;;5089955;28;20478;-78
2022/08/19 12:33:28;;;;;;;23.77;6.40;;;;;;;;;;5089509;28;20403;-79
2022/08/19 12:35:54;;;;;;;22.65;6.20;;;;;;;;;;5090143;28;20429;-76
2022/08/19 12:38:24;;;;;;;10.63;5.88;;;;;;;;;;5121206;27;20099;-77
2022/08/19 12:40:51;;;;;;;14.98;6.22;;;;;;;;;;5119226;27;20060;-76
2022/08/19 12:43:18;;;;;;;16.92;5.70;;;;;;;;;;5089378;28;20769;-76
2022/08/19 12:45:44;;;;;;;11.35;4.50;;;;;;;;;;5089074;28;20035;-77
2022/08/19 12:48:11;;;;;;;10.93;5.50;;;;;;;;;;5090184;28;20024;-77
2022/08/19 12:50:39;;;;;;;15.07;5.72;;;;;;;;;;5090333;28;20016;-78
2022/08/19 12:53:06;;;;;;;18.40;5.18;;;;;;;;;;5088821;28;20013;-75
2022/08/19 12:55:32;;;;;;;18.25;6.70;;;;;;;;;;5077534;28;20131;-76
2022/08/19 12:58:00;;;;;;;16.48;6.20;;;;;;;;;;5090793;28;20387;-75
2022/08/19 13:00:26;;;;;;;15.88;5.97;;;;;;;;;;5090704;28;20471;-75
2022/08/19 13:02:52;;;;;;;20.73;6.38;;;;;;;;;;5090956;28;20379;-76
2022/08/19 13:05:22;;;;;;;21.83;6.22;;;;;;;;;;5086218;28;20020;-76
2022/08/19 13:07:48;;;;;;;18.48;5.78;;;;;;;;;;5079782;28;20389;-78
2022/08/19 13:10:16;;;;;;;19.20;6.28;;;;;;;;;;5090407;28;20395;-75
2022/08/19 13:12:43;;;;;;;14.55;6.38;;;;;;;;;;5083026;28;20082;-77
2022/08/19 13:15:09;;;;;;;12.98;6.07;;;;;;;;;;5078991;28;20103;-72
2022/08/19 13:17:35;;;;;;;20.17;6.18;;;;;;;;;;5124352;27;20101;-73
2022/08/19 13:20:02;;;;;;;17.27;5.55;;;;;;;;;;5093276;28;20487;-75
2022/08/19 13:22:28;;;;;;;15.85;6.13;;;;;;;;;;5087032;28;20051;-73
2022/08/19 13:24:56;;;;;;;15.70;5.25;;;;;;;;;;5092530;28;20100;-73
2022/08/19 13:27:22;;;;;;;14.27;5.95;;;;;;;;;;5092918;28;20020;-73
2022/08/19 13:35:18;;;;;;;15.73;6.65;;;;;;;;;;5092792;28;20036;-74
2022/08/19 13:37:45;;;;;;;20.85;6.53;;;;;;;;;;5121475;27;20027;-74
2022/08/19 13:40:19;;;;;;;18.92;6.15;;;;;;;;;;5090057;28;20020;-73
2022/08/19 13:42:47;;;;;;;13.27;6.72;;;;;;;;;;5092586;28;20023;-73
2022/08/19 13:45:14;;;;;;;17.25;5.82;;;;;;;;;;5122997;27;20012;-73
2022/08/19 13:47:44;;;;;;;21.92;6.93;;;;;;;;;;5090109;28;20035;-74
2022/08/19 13:50:14;;;;;;;16.50;5.55;;;;;;;;;;5091959;28;20019;-73
2022/08/19 13:52:41;;;;;;;23.40;5.60;;;;;;;;;;5091692;28;20470;-75
2022/08/19 13:55:07;;;;;;;17.63;5.70;;;;;;;;;;5128047;27;20054;-73
2022/08/19 13:57:33;;;;;;;17.35;5.40;;;;;;;;;;5091736;28;20043;-73
2022/08/19 13:59:59;;;;;;;21.85;7.10;;;;;;;;;;5122131;27;20027;-74
2022/08/19 14:02:26;;;;;;;10.25;5.60;;;;;;;;;;5092373;28;20031;-73
2022/08/19 14:04:52;;;;;;;23.90;7.35;;;;;;;;;;5122830;27;20043;-74
2022/08/19 14:07:18;;;;;;;19.55;6.50;;;;;;;;;;5092632;28;20024;-73
2022/08/19 14:09:44;;;;;;;18.33;6.82;;;;;;;;;;5092027;28;20103;-76
2022/08/19 14:12:10;;;;;;;20.35;5.70;;;;;;;;;;5091217;28;20093;-75
2022/08/19 14:14:39;;;;;;;15.95;6.60;;;;;;;;;;5130359;27;20082;-76
2022/08/19 14:17:11;;;;;;;21.23;6.43;;;;;;;;;;5093351;28;20069;-76
2022/08/19 14:19:37;;;;;;;24.17;8.90;;;;;;;;;;5123658;27;20450;-76
2022/08/19 14:22:05;;;;;;;16.15;6.88;;;;;;;;;;5091163;28;20535;-75
2022/08/19 14:24:31;;;;;;;14.85;5.80;;;;;;;;;;5091838;28;20490;-76
2022/08/19 14:26:58;;;;;;;18.13;7.75;;;;;;;;;;5088283;28;20483;-75
2022/08/19 14:29:24;;;;;;;26.63;8.30;;;;;;;;;;5088690;28;20429;-76
2022/08/19 14:31:50;;;;;;;21.73;8.52;;;;;;;;;;5091260;28;20038;-78
2022/08/19 14:34:16;;;;;;;16.10;7.55;;;;;;;;;;5091291;28;20055;-75
2022/08/19 14:36:43;;;;;;;20.65;7.97;;;;;;;;;;5091619;28;20020;-77
2022/08/19 14:39:09;;;;;;;20.85;6.88;;;;;;;;;;5092762;28;20047;-76
2022/08/19 14:41:35;;;;;;;11.88;6.53;;;;;;;;;;5086206;28;20021;-74
2022/08/19 14:44:01;;;;;;;16.83;6.78;;;;;;;;;;5088388;28;20048;-75
2022/08/19 14:46:28;;;;;;;16.92;6.75;;;;;;;;;;5093482;28;20027;-75
2022/08/19 14:48:55;;;;;;;14.25;5.30;;;;;;;;;;5093352;28;20063;-75
2022/08/19 14:51:23;;;;;;;13.07;5.47;;;;;;;;;;5117418;27;20391;-74
2022/08/19 14:53:51;;;;;;;21.35;7.13;;;;;;;;;;5125768;27;20021;-75
2022/08/19 14:56:20;;;;;;;19.58;7.90;;;;;;;;;;5078928;28;20212;-75
2022/08/19 14:58:46;;;;;;;18.60;7.25;;;;;;;;;;5089492;28;20024;-74
2022/08/19 15:01:12;;;;;;;18.55;7.50;;;;;;;;;;5092411;28;20024;-74